Bellport, New York
Current Conditions -  °F | °C
As of 6:56 AM on Friday 24 Oct 2014 (Local Time) from KHWV Reporting Station
Overcast Overcast  
Wind Chill: 51°   Ceiling: 4200
Heat Index: 51°   Visibility: 10mi
Dew Point: 45°   Wind: 13mph
Humidity: 80%   Direction: 320°NW
Pressure: 29.77"   Gusts: NA
Location:  40.76°N, 72.94°W
Report Text: KHWV 241056Z AUTO 32011KT 10SM FEW021 OVC042 11/07 A2977 RMK AO2 SLP079 T01060072 TSNO
Loading
Personal Weather Stations






























Interactive Weather Map
Tropical Storm Tracking
New forecast layout! Learn more

10-Day Weather Forecast

Advertisements
Track Severe Weather on mobile